Terminal Aerodrome Forecast
Issued by NWS

Home | Current Version | Previous Version | Graphics & Text | Print | Product List | Glossary On
Versions: 1 2 3 4 5 6 7 8 9 10 11 12
000
FTUS43 KBIS 270155 AAA
TAFDIK
TAF AMD
KDIK 270155Z 2702/2724 17005KT P6SM SKC
     FM270500 18006KT P6SM FEW250
     FM270900 21008KT P6SM SKC
     FM271300 25011KT P6SM SKC
     FM271700 31014G22KT P6SM FEW090=

USA.gov is the U.S. government's official web portal to all federal, state and local government web resources and services.